sensor_id;sensor_type;location;lat;lon;timestamp;temperature;humidity
17421;DHT22;8828;48.800;9.540;2022-10-16T00:00:57;16.00;99.90
17421;DHT22;8828;48.800;9.540;2022-10-16T00:03:27;16.00;99.90
17421;DHT22;8828;48.800;9.540;2022-10-16T00:05:59;15.90;99.90
17421;DHT22;8828;48.800;9.540;2022-10-16T00:08:27;15.90;99.90
17421;DHT22;8828;48.800;9.540;2022-10-16T00:11:00;15.90;99.90
17421;DHT22;8828;48.800;9.540;2022-10-16T00:13:28;15.90;99.90
17421;DHT22;8828;48.800;9.540;2022-10-16T00:15:57;15.90;99.90
17421;DHT22;8828;48.800;9.540;2022-10-16T00:18:28;15.90;99.90
17421;DHT22;8828;48.800;9.540;2022-10-16T00:21:01;15.90;99.90
17421;DHT22;8828;48.800;9.540;2022-10-16T00:23:29;15.90;99.90
17421;DHT22;8828;48.800;9.540;2022-10-16T00:25:59;15.90;99.90
17421;DHT22;8828;48.800;9.540;2022-10-16T00:28:27;15.90;99.90
17421;DHT22;8828;48.800;9.540;2022-10-16T00:30:56;15.90;99.90
17421;DHT22;8828;48.800;9.540;2022-10-16T00:33:24;15.90;99.90
17421;DHT22;8828;48.800;9.540;2022-10-16T00:35:53;15.90;99.90
17421;DHT22;8828;48.800;9.540;2022-10-16T00:38:21;15.90;99.90
17421;DHT22;8828;48.800;9.540;2022-10-16T00:40:49;15.80;99.90
17421;DHT22;8828;48.800;9.540;2022-10-16T00:43:33;15.80;99.90
17421;DHT22;8828;48.800;9.540;2022-10-16T00:46:02;15.80;99.90
17421;DHT22;8828;48.800;9.540;2022-10-16T00:48:30;15.80;99.90
17421;DHT22;8828;48.800;9.540;2022-10-16T00:50:59;15.80;99.90
17421;DHT22;8828;48.800;9.540;2022-10-16T00:53:28;15.80;99.90
17421;DHT22;8828;48.800;9.540;2022-10-16T00:55:56;15.70;99.90
17421;DHT22;8828;48.800;9.540;2022-10-16T00:58:24;15.70;99.90
17421;DHT22;8828;48.800;9.540;2022-10-16T01:00:52;15.70;99.90
17421;DHT22;8828;48.800;9.540;2022-10-16T01:03:25;15.70;99.90
17421;DHT22;8828;48.800;9.540;2022-10-16T01:06:02;15.70;99.90
17421;DHT22;8828;48.800;9.540;2022-10-16T01:08:39;15.60;99.90
17421;DHT22;8828;48.800;9.540;2022-10-16T01:11:17;15.60;99.90
17421;DHT22;8828;48.800;9.540;2022-10-16T01:13:54;15.60;99.90
17421;DHT22;8828;48.800;9.540;2022-10-16T01:16:29;15.60;99.90
17421;DHT22;8828;48.800;9.540;2022-10-16T01:19:04;15.60;99.90
17421;DHT22;8828;48.800;9.540;2022-10-16T01:21:40;15.50;99.90
17421;DHT22;8828;48.800;9.540;2022-10-16T01:24:16;15.50;99.90
17421;DHT22;8828;48.800;9.540;2022-10-16T01:27:10;15.50;99.90
17421;DHT22;8828;48.800;9.540;2022-10-16T01:29:48;15.50;99.90
17421;DHT22;8828;48.800;9.540;2022-10-16T01:32:24;15.50;99.90
17421;DHT22;8828;48.800;9.540;2022-10-16T01:34:55;15.40;99.90
17421;DHT22;8828;48.800;9.540;2022-10-16T01:37:32;15.40;99.90
17421;DHT22;8828;48.800;9.540;2022-10-16T01:40:04;15.50;99.90
17421;DHT22;8828;48.800;9.540;2022-10-16T01:42:37;15.50;99.90
17421;DHT22;8828;48.800;9.540;2022-10-16T01:45:07;15.40;99.90
17421;DHT22;8828;48.800;9.540;2022-10-16T01:47:37;15.50;99.90
17421;DHT22;8828;48.800;9.540;2022-10-16T01:50:08;15.40;99.90
17421;DHT22;8828;48.800;9.540;2022-10-16T01:52:39;15.40;99.90
17421;DHT22;8828;48.800;9.540;2022-10-16T01:55:10;15.40;99.90
17421;DHT22;8828;48.800;9.540;2022-10-16T01:57:43;15.40;99.90
17421;DHT22;8828;48.800;9.540;2022-10-16T02:00:14;15.40;99.90
17421;DHT22;8828;48.800;9.540;2022-10-16T02:02:46;15.40;99.90
17421;DHT22;8828;48.800;9.540;2022-10-16T02:05:20;15.40;99.90
17421;DHT22;8828;48.800;9.540;2022-10-16T02:07:49;15.40;99.90
17421;DHT22;8828;48.800;9.540;2022-10-16T02:10:18;15.40;99.90
17421;DHT22;8828;48.800;9.540;2022-10-16T02:12:50;15.40;99.90
17421;DHT22;8828;48.800;9.540;2022-10-16T02:15:20;15.40;99.90
17421;DHT22;8828;48.800;9.540;2022-10-16T02:17:48;15.40;99.90
17421;DHT22;8828;48.800;9.540;2022-10-16T02:20:16;15.40;99.90
17421;DHT22;8828;48.800;9.540;2022-10-16T02:22:47;15.40;99.90
17421;DHT22;8828;48.800;9.540;2022-10-16T02:25:22;15.40;99.90
17421;DHT22;8828;48.800;9.540;2022-10-16T02:27:57;15.40;99.90
17421;DHT22;8828;48.800;9.540;2022-10-16T02:30:32;15.40;99.90
17421;DHT22;8828;48.800;9.540;2022-10-16T02:33:02;15.40;99.90
17421;DHT22;8828;48.800;9.540;2022-10-16T02:35:32;15.40;99.90
17421;DHT22;8828;48.800;9.540;2022-10-16T02:38:01;15.40;99.90
17421;DHT22;8828;48.800;9.540;2022-10-16T02:40:29;15.40;99.90
17421;DHT22;8828;48.800;9.540;2022-10-16T02:42:58;15.40;99.90
17421;DHT22;8828;48.800;9.540;2022-10-16T02:45:26;15.40;99.90
17421;DHT22;8828;48.800;9.540;2022-10-16T02:47:55;15.40;99.90
17421;DHT22;8828;48.800;9.540;2022-10-16T02:50:23;15.40;99.90
17421;DHT22;8828;48.800;9.540;2022-10-16T02:52:52;15.40;99.90
17421;DHT22;8828;48.800;9.540;2022-10-16T02:55:20;15.40;99.90
17421;DHT22;8828;48.800;9.540;2022-10-16T02:57:48;15.40;99.90
17421;DHT22;8828;48.800;9.540;2022-10-16T03:00:17;15.40;99.90
17421;DHT22;8828;48.800;9.540;2022-10-16T03:02:45;15.40;99.90
17421;DHT22;8828;48.800;9.540;2022-10-16T03:05:14;15.40;99.90
17421;DHT22;8828;48.800;9.540;2022-10-16T03:07:42;15.40;99.90
17421;DHT22;8828;48.800;9.540;2022-10-16T03:10:10;15.30;99.90
17421;DHT22;8828;48.800;9.540;2022-10-16T03:12:37;15.40;99.90
17421;DHT22;8828;48.800;9.540;2022-10-16T03:15:06;15.30;99.90
17421;DHT22;8828;48.800;9.540;2022-10-16T03:17:35;15.30;99.90
17421;DHT22;8828;48.800;9.540;2022-10-16T03:20:04;15.40;99.90
17421;DHT22;8828;48.800;9.540;2022-10-16T03:22:32;15.40;99.90
17421;DHT22;8828;48.800;9.540;2022-10-16T03:25:00;15.30;99.90
17421;DHT22;8828;48.800;9.540;2022-10-16T03:27:28;15.30;99.90
17421;DHT22;8828;48.800;9.540;2022-10-16T03:29:56;15.30;99.90
17421;DHT22;8828;48.800;9.540;2022-10-16T03:32:24;15.30;99.90
17421;DHT22;8828;48.800;9.540;2022-10-16T03:34:53;15.30;99.90
17421;DHT22;8828;48.800;9.540;2022-10-16T03:37:23;15.30;99.90
17421;DHT22;8828;48.800;9.540;2022-10-16T03:39:52;15.30;99.90
17421;DHT22;8828;48.800;9.540;2022-10-16T03:42:20;15.30;99.90
17421;DHT22;8828;48.800;9.540;2022-10-16T03:44:48;15.30;99.90
17421;DHT22;8828;48.800;9.540;2022-10-16T03:47:15;15.30;99.90
17421;DHT22;8828;48.800;9.540;2022-10-16T03:49:47;15.30;99.90
17421;DHT22;8828;48.800;9.540;2022-10-16T03:52:16;15.30;99.90
17421;DHT22;8828;48.800;9.540;2022-10-16T03:54:49;15.20;99.90
17421;DHT22;8828;48.800;9.540;2022-10-16T03:57:17;15.20;99.90
17421;DHT22;8828;48.800;9.540;2022-10-16T03:59:45;15.20;99.90
17421;DHT22;8828;48.800;9.540;2022-10-16T04:02:13;15.20;99.90
17421;DHT22;8828;48.800;9.540;2022-10-16T04:04:41;15.20;99.90
17421;DHT22;8828;48.800;9.540;2022-10-16T04:07:09;15.20;99.90
17421;DHT22;8828;48.800;9.540;2022-10-16T04:09:38;15.20;99.90
17421;DHT22;8828;48.800;9.540;2022-10-16T04:12:06;15.10;99.90
17421;DHT22;8828;48.800;9.540;2022-10-16T04:14:34;15.20;99.90
17421;DHT22;8828;48.800;9.540;2022-10-16T04:17:01;15.20;99.90
17421;DHT22;8828;48.800;9.540;2022-10-16T04:19:29;15.10;99.90
17421;DHT22;8828;48.800;9.540;2022-10-16T04:21:57;15.10;99.90
17421;DHT22;8828;48.800;9.540;2022-10-16T04:24:25;15.10;99.90
17421;DHT22;8828;48.800;9.540;2022-10-16T04:26:54;15.10;99.90
17421;DHT22;8828;48.800;9.540;2022-10-16T04:29:22;15.00;99.90
17421;DHT22;8828;48.800;9.540;2022-10-16T04:31:50;15.10;99.90
17421;DHT22;8828;48.800;9.540;2022-10-16T04:34:18;15.00;99.90
17421;DHT22;8828;48.800;9.540;2022-10-16T04:36:47;15.00;99.90
17421;DHT22;8828;48.800;9.540;2022-10-16T04:39:16;15.00;99.90
17421;DHT22;8828;48.800;9.540;2022-10-16T04:41:43;15.00;99.90
17421;DHT22;8828;48.800;9.540;2022-10-16T04:44:13;15.00;99.90
17421;DHT22;8828;48.800;9.540;2022-10-16T04:46:41;15.00;99.90
17421;DHT22;8828;48.800;9.540;2022-10-16T04:49:08;15.00;99.90
17421;DHT22;8828;48.800;9.540;2022-10-16T04:51:36;15.00;99.90
17421;DHT22;8828;48.800;9.540;2022-10-16T04:54:04;15.00;99.90
17421;DHT22;8828;48.800;9.540;2022-10-16T04:56:32;15.00;99.90
17421;DHT22;8828;48.800;9.540;2022-10-16T04:59:06;15.00;99.90
17421;DHT22;8828;48.800;9.540;2022-10-16T05:01:36;15.00;99.90
17421;DHT22;8828;48.800;9.540;2022-10-16T05:04:03;15.00;99.90
17421;DHT22;8828;48.800;9.540;2022-10-16T05:06:32;15.00;99.90
17421;DHT22;8828;48.800;9.540;2022-10-16T05:08:59;15.00;99.90
17421;DHT22;8828;48.800;9.540;2022-10-16T05:11:27;15.00;99.90
17421;DHT22;8828;48.800;9.540;2022-10-16T05:13:55;15.00;99.90
17421;DHT22;8828;48.800;9.540;2022-10-16T05:16:23;15.00;99.90
17421;DHT22;8828;48.800;9.540;2022-10-16T05:18:53;15.00;99.90
17421;DHT22;8828;48.800;9.540;2022-10-16T05:21:30;15.00;99.90
17421;DHT22;8828;48.800;9.540;2022-10-16T05:23:57;15.00;99.90
17421;DHT22;8828;48.800;9.540;2022-10-16T05:26:25;15.00;99.90
17421;DHT22;8828;48.800;9.540;2022-10-16T05:28:54;15.00;99.90
17421;DHT22;8828;48.800;9.540;2022-10-16T05:31:22;15.00;99.90
17421;DHT22;8828;48.800;9.540;2022-10-16T05:33:51;15.00;99.90
17421;DHT22;8828;48.800;9.540;2022-10-16T05:36:19;15.00;99.90
17421;DHT22;8828;48.800;9.540;2022-10-16T05:38:50;15.00;99.90
17421;DHT22;8828;48.800;9.540;2022-10-16T05:41:18;15.00;99.90
17421;DHT22;8828;48.800;9.540;2022-10-16T05:43:48;15.00;99.90
17421;DHT22;8828;48.800;9.540;2022-10-16T05:46:16;15.00;99.90
17421;DHT22;8828;48.800;9.540;2022-10-16T05:48:45;15.00;99.90
17421;DHT22;8828;48.800;9.540;2022-10-16T05:51:14;15.00;99.90
17421;DHT22;8828;48.800;9.540;2022-10-16T05:53:42;14.90;99.90
17421;DHT22;8828;48.800;9.540;2022-10-16T05:56:15;14.90;99.90
17421;DHT22;8828;48.800;9.540;2022-10-16T05:58:43;14.90;99.90
17421;DHT22;8828;48.800;9.540;2022-10-16T06:01:13;14.90;99.90
17421;DHT22;8828;48.800;9.540;2022-10-16T06:03:42;14.90;99.90
17421;DHT22;8828;48.800;9.540;2022-10-16T06:06:11;14.90;99.90
17421;DHT22;8828;48.800;9.540;2022-10-16T06:08:42;14.90;99.90
17421;DHT22;8828;48.800;9.540;2022-10-16T06:11:12;15.00;99.90
17421;DHT22;8828;48.800;9.540;2022-10-16T06:13:40;15.00;99.90
17421;DHT22;8828;48.800;9.540;2022-10-16T06:16:10;15.00;99.90
17421;DHT22;8828;48.800;9.540;2022-10-16T06:18:38;15.00;99.90
17421;DHT22;8828;48.800;9.540;2022-10-16T06:21:11;15.10;99.90
17421;DHT22;8828;48.800;9.540;2022-10-16T06:23:40;15.10;99.90
17421;DHT22;8828;48.800;9.540;2022-10-16T06:26:09;15.10;99.90
17421;DHT22;8828;48.800;9.540;2022-10-16T06:28:37;15.10;99.90
17421;DHT22;8828;48.800;9.540;2022-10-16T06:31:07;15.20;99.90
17421;DHT22;8828;48.800;9.540;2022-10-16T06:33:35;15.20;99.90
17421;DHT22;8828;48.800;9.540;2022-10-16T06:36:05;15.20;99.90
17421;DHT22;8828;48.800;9.540;2022-10-16T06:38:34;15.30;99.90
17421;DHT22;8828;48.800;9.540;2022-10-16T06:41:04;15.30;99.90
17421;DHT22;8828;48.800;9.540;2022-10-16T06:43:33;15.40;99.90
17421;DHT22;8828;48.800;9.540;2022-10-16T06:46:03;15.40;99.90
17421;DHT22;8828;48.800;9.540;2022-10-16T06:48:31;15.40;99.90
17421;DHT22;8828;48.800;9.540;2022-10-16T06:51:01;15.50;99.90
17421;DHT22;8828;48.800;9.540;2022-10-16T06:53:36;15.50;99.90
17421;DHT22;8828;48.800;9.540;2022-10-16T06:56:14;15.60;99.90
17421;DHT22;8828;48.800;9.540;2022-10-16T06:58:42;15.70;99.90
17421;DHT22;8828;48.800;9.540;2022-10-16T07:01:11;15.80;99.90
17421;DHT22;8828;48.800;9.540;2022-10-16T07:03:41;15.80;99.90
17421;DHT22;8828;48.800;9.540;2022-10-16T07:06:11;15.80;99.90
17421;DHT22;8828;48.800;9.540;2022-10-16T07:08:41;15.90;99.90
17421;DHT22;8828;48.800;9.540;2022-10-16T07:11:12;15.90;99.90
17421;DHT22;8828;48.800;9.540;2022-10-16T07:13:42;15.90;99.90
17421;DHT22;8828;48.800;9.540;2022-10-16T07:16:12;16.00;99.90
17421;DHT22;8828;48.800;9.540;2022-10-16T07:18:41;16.00;99.90
17421;DHT22;8828;48.800;9.540;2022-10-16T07:21:13;16.00;99.90
17421;DHT22;8828;48.800;9.540;2022-10-16T07:23:41;16.00;99.90
17421;DHT22;8828;48.800;9.540;2022-10-16T07:26:10;16.00;99.90
17421;DHT22;8828;48.800;9.540;2022-10-16T07:28:39;16.00;99.90
17421;DHT22;8828;48.800;9.540;2022-10-16T07:31:10;16.10;99.90
17421;DHT22;8828;48.800;9.540;2022-10-16T07:33:39;16.10;99.90
17421;DHT22;8828;48.800;9.540;2022-10-16T07:36:08;16.10;99.90
17421;DHT22;8828;48.800;9.540;2022-10-16T07:38:42;16.10;99.90
17421;DHT22;8828;48.800;9.540;2022-10-16T07:41:11;16.10;99.90
17421;DHT22;8828;48.800;9.540;2022-10-16T07:43:45;16.20;99.90
17421;DHT22;8828;48.800;9.540;2022-10-16T07:46:14;16.20;99.90
17421;DHT22;8828;48.800;9.540;2022-10-16T07:48:43;16.20;99.90
17421;DHT22;8828;48.800;9.540;2022-10-16T07:51:14;16.20;99.90
17421;DHT22;8828;48.800;9.540;2022-10-16T07:53:43;16.20;99.90
17421;DHT22;8828;48.800;9.540;2022-10-16T07:56:11;16.10;99.90
17421;DHT22;8828;48.800;9.540;2022-10-16T07:58:40;16.20;99.90
17421;DHT22;8828;48.800;9.540;2022-10-16T08:01:10;16.20;99.90
17421;DHT22;8828;48.800;9.540;2022-10-16T08:03:40;16.20;99.90
17421;DHT22;8828;48.800;9.540;2022-10-16T08:06:08;16.20;99.90
17421;DHT22;8828;48.800;9.540;2022-10-16T08:08:36;16.20;99.90
17421;DHT22;8828;48.800;9.540;2022-10-16T08:11:04;16.20;99.90
17421;DHT22;8828;48.800;9.540;2022-10-16T08:13:32;16.20;99.90
17421;DHT22;8828;48.800;9.540;2022-10-16T08:16:03;16.20;99.90
17421;DHT22;8828;48.800;9.540;2022-10-16T08:18:34;16.30;99.90
17421;DHT22;8828;48.800;9.540;2022-10-16T08:21:04;16.30;99.90
17421;DHT22;8828;48.800;9.540;2022-10-16T08:23:33;16.30;99.90
17421;DHT22;8828;48.800;9.540;2022-10-16T08:26:05;16.30;99.90
17421;DHT22;8828;48.800;9.540;2022-10-16T08:28:34;16.40;99.90
17421;DHT22;8828;48.800;9.540;2022-10-16T08:31:12;16.40;99.90
17421;DHT22;8828;48.800;9.540;2022-10-16T08:33:41;16.40;99.90
17421;DHT22;8828;48.800;9.540;2022-10-16T08:36:11;16.50;99.90
17421;DHT22;8828;48.800;9.540;2022-10-16T08:38:39;16.60;99.90
17421;DHT22;8828;48.800;9.540;2022-10-16T08:44:56;17.20;99.90
17421;DHT22;8828;48.800;9.540;2022-10-16T08:47:41;17.40;99.90
17421;DHT22;8828;48.800;9.540;2022-10-16T08:50:13;17.90;99.90
17421;DHT22;8828;48.800;9.540;2022-10-16T08:52:43;18.40;99.90
17421;DHT22;8828;48.800;9.540;2022-10-16T08:55:29;18.50;99.90
17421;DHT22;8828;48.800;9.540;2022-10-16T08:57:59;18.70;99.90
17421;DHT22;8828;48.800;9.540;2022-10-16T09:00:27;19.00;99.90
17421;DHT22;8828;48.800;9.540;2022-10-16T09:03:05;19.10;99.90
17421;DHT22;8828;48.800;9.540;2022-10-16T09:05:57;19.10;99.90
17421;DHT22;8828;48.800;9.540;2022-10-16T09:08:36;19.00;99.90
17421;DHT22;8828;48.800;9.540;2022-10-16T09:11:13;18.90;99.90
17421;DHT22;8828;48.800;9.540;2022-10-16T09:13:48;18.80;99.90
17421;DHT22;8828;48.800;9.540;2022-10-16T09:16:20;18.60;99.90
17421;DHT22;8828;48.800;9.540;2022-10-16T09:19:00;18.40;99.90
17421;DHT22;8828;48.800;9.540;2022-10-16T09:21:34;18.30;99.90
17421;DHT22;8828;48.800;9.540;2022-10-16T09:24:10;18.20;99.90
17421;DHT22;8828;48.800;9.540;2022-10-16T09:26:39;18.10;99.90
17421;DHT22;8828;48.800;9.540;2022-10-16T09:29:10;18.10;99.90
17421;DHT22;8828;48.800;9.540;2022-10-16T09:31:40;18.20;99.90
17421;DHT22;8828;48.800;9.540;2022-10-16T09:34:15;18.20;99.90
17421;DHT22;8828;48.800;9.540;2022-10-16T09:36:46;18.40;99.90
17421;DHT22;8828;48.800;9.540;2022-10-16T09:39:14;18.60;99.90
17421;DHT22;8828;48.800;9.540;2022-10-16T09:41:43;18.90;99.90
17421;DHT22;8828;48.800;9.540;2022-10-16T09:44:21;19.50;99.90
17421;DHT22;8828;48.800;9.540;2022-10-16T09:47:01;19.70;99.90
17421;DHT22;8828;48.800;9.540;2022-10-16T09:49:30;19.80;99.90
17421;DHT22;8828;48.800;9.540;2022-10-16T09:52:05;19.90;99.90
17421;DHT22;8828;48.800;9.540;2022-10-16T09:54:33;19.90;99.90
17421;DHT22;8828;48.800;9.540;2022-10-16T09:57:05;20.00;99.90
17421;DHT22;8828;48.800;9.540;2022-10-16T09:59:34;20.30;99.90
17421;DHT22;8828;48.800;9.540;2022-10-16T10:02:04;20.40;99.90
17421;DHT22;8828;48.800;9.540;2022-10-16T10:04:42;20.50;99.90
17421;DHT22;8828;48.800;9.540;2022-10-16T10:07:18;20.60;99.90
17421;DHT22;8828;48.800;9.540;2022-10-16T10:09:46;20.60;99.90
17421;DHT22;8828;48.800;9.540;2022-10-16T10:12:18;20.90;99.90
17421;DHT22;8828;48.800;9.540;2022-10-16T10:14:53;21.30;99.90
17421;DHT22;8828;48.800;9.540;2022-10-16T10:17:23;23.20;99.90
17421;DHT22;8828;48.800;9.540;2022-10-16T10:19:54;25.30;99.90
17421;DHT22;8828;48.800;9.540;2022-10-16T10:22:29;26.20;99.90
17421;DHT22;8828;48.800;9.540;2022-10-16T10:25:07;26.60;99.90
17421;DHT22;8828;48.800;9.540;2022-10-16T10:27:48;27.00;99.90
17421;DHT22;8828;48.800;9.540;2022-10-16T10:30:21;28.70;99.90
17421;DHT22;8828;48.800;9.540;2022-10-16T10:33:00;29.90;99.90
17421;DHT22;8828;48.800;9.540;2022-10-16T10:35:41;29.60;99.90
17421;DHT22;8828;48.800;9.540;2022-10-16T10:38:25;29.00;99.90
17421;DHT22;8828;48.800;9.540;2022-10-16T10:41:02;28.50;99.90
17421;DHT22;8828;48.800;9.540;2022-10-16T10:43:42;29.10;99.90
17421;DHT22;8828;48.800;9.540;2022-10-16T10:46:19;31.00;99.90
17421;DHT22;8828;48.800;9.540;2022-10-16T10:49:04;32.80;99.90
17421;DHT22;8828;48.800;9.540;2022-10-16T10:51:41;34.30;96.40
17421;DHT22;8828;48.800;9.540;2022-10-16T10:54:15;35.90;92.10
17421;DHT22;8828;48.800;9.540;2022-10-16T10:56:48;37.30;84.90
17421;DHT22;8828;48.800;9.540;2022-10-16T10:59:50;38.50;75.20
17421;DHT22;8828;48.800;9.540;2022-10-16T11:02:26;39.60;68.40
17421;DHT22;8828;48.800;9.540;2022-10-16T11:08:08;41.20;59.00
17421;DHT22;8828;48.800;9.540;2022-10-16T11:10:45;41.60;58.10
17421;DHT22;8828;48.800;9.540;2022-10-16T11:13:20;42.10;57.40
17421;DHT22;8828;48.800;9.540;2022-10-16T11:15:52;42.30;56.80
17421;DHT22;8828;48.800;9.540;2022-10-16T11:18:24;42.80;55.70
17421;DHT22;8828;48.800;9.540;2022-10-16T11:20:57;43.00;54.70
17421;DHT22;8828;48.800;9.540;2022-10-16T11:23:31;43.30;54.70
17421;DHT22;8828;48.800;9.540;2022-10-16T11:26:05;43.60;52.60
17421;DHT22;8828;48.800;9.540;2022-10-16T11:28:37;43.90;52.10
17421;DHT22;8828;48.800;9.540;2022-10-16T11:31:11;44.10;50.80
17421;DHT22;8828;48.800;9.540;2022-10-16T11:33:43;44.20;49.70
17421;DHT22;8828;48.800;9.540;2022-10-16T11:36:15;44.20;49.30
17421;DHT22;8828;48.800;9.540;2022-10-16T11:38:51;44.30;48.80
17421;DHT22;8828;48.800;9.540;2022-10-16T11:41:27;44.30;48.70
17421;DHT22;8828;48.800;9.540;2022-10-16T11:44:12;44.20;48.20
17421;DHT22;8828;48.800;9.540;2022-10-16T11:46:46;44.00;48.20
17421;DHT22;8828;48.800;9.540;2022-10-16T11:49:37;44.00;48.20
17421;DHT22;8828;48.800;9.540;2022-10-16T11:52:14;43.20;49.00
17421;DHT22;8828;48.800;9.540;2022-10-16T11:54:50;41.70;49.70
17421;DHT22;8828;48.800;9.540;2022-10-16T11:57:23;40.50;50.80
17421;DHT22;8828;48.800;9.540;2022-10-16T11:59:57;40.50;51.10
17421;DHT22;8828;48.800;9.540;2022-10-16T12:02:38;40.10;51.80
17421;DHT22;8828;48.800;9.540;2022-10-16T12:05:22;39.20;50.80
17421;DHT22;8828;48.800;9.540;2022-10-16T12:08:00;38.90;51.40
17421;DHT22;8828;48.800;9.540;2022-10-16T12:10:31;38.70;52.00
17421;DHT22;8828;48.800;9.540;2022-10-16T12:13:30;38.10;50.90
17421;DHT22;8828;48.800;9.540;2022-10-16T12:16:20;37.10;52.30
17421;DHT22;8828;48.800;9.540;2022-10-16T12:18:48;36.50;52.90
17421;DHT22;8828;48.800;9.540;2022-10-16T12:21:17;36.00;54.10
17421;DHT22;8828;48.800;9.540;2022-10-16T12:23:48;35.40;54.70
17421;DHT22;8828;48.800;9.540;2022-10-16T12:26:25;34.70;55.40
17421;DHT22;8828;48.800;9.540;2022-10-16T12:28:54;34.20;56.40
17421;DHT22;8828;48.800;9.540;2022-10-16T12:31:22;33.70;55.50
17421;DHT22;8828;48.800;9.540;2022-10-16T12:33:57;33.30;55.60
17421;DHT22;8828;48.800;9.540;2022-10-16T12:36:28;33.10;57.10
17421;DHT22;8828;48.800;9.540;2022-10-16T12:38:57;33.00;56.50
17421;DHT22;8828;48.800;9.540;2022-10-16T12:41:28;33.00;57.90
17421;DHT22;8828;48.800;9.540;2022-10-16T12:43:57;33.00;59.00
17421;DHT22;8828;48.800;9.540;2022-10-16T12:46:38;33.10;59.80
17421;DHT22;8828;48.800;9.540;2022-10-16T12:49:22;33.30;59.20
17421;DHT22;8828;48.800;9.540;2022-10-16T12:51:52;33.00;58.80
17421;DHT22;8828;48.800;9.540;2022-10-16T12:54:25;32.50;59.40
17421;DHT22;8828;48.800;9.540;2022-10-16T12:57:23;32.10;61.10
17421;DHT22;8828;48.800;9.540;2022-10-16T12:59:58;31.70;62.30
17421;DHT22;8828;48.800;9.540;2022-10-16T13:05:59;30.80;64.30
17421;DHT22;8828;48.800;9.540;2022-10-16T13:08:48;30.20;66.60
17421;DHT22;8828;48.800;9.540;2022-10-16T13:11:33;29.60;66.70
17421;DHT22;8828;48.800;9.540;2022-10-16T13:14:28;29.00;66.70
17421;DHT22;8828;48.800;9.540;2022-10-16T13:17:07;28.40;68.60
17421;DHT22;8828;48.800;9.540;2022-10-16T13:19:44;27.90;70.50
17421;DHT22;8828;48.800;9.540;2022-10-16T13:22:21;27.50;72.70
17421;DHT22;8828;48.800;9.540;2022-10-16T13:25:02;27.20;73.40
17421;DHT22;8828;48.800;9.540;2022-10-16T13:27:44;27.00;74.50
17421;DHT22;8828;48.800;9.540;2022-10-16T13:30:18;26.70;74.50
17421;DHT22;8828;48.800;9.540;2022-10-16T13:32:48;26.50;74.80
17421;DHT22;8828;48.800;9.540;2022-10-16T13:35:24;26.30;75.60
17421;DHT22;8828;48.800;9.540;2022-10-16T13:38:04;26.20;76.00
17421;DHT22;8828;48.800;9.540;2022-10-16T13:40:32;26.10;77.50
17421;DHT22;8828;48.800;9.540;2022-10-16T13:43:01;26.00;77.60
17421;DHT22;8828;48.800;9.540;2022-10-16T13:45:30;26.00;77.70
17421;DHT22;8828;48.800;9.540;2022-10-16T13:48:03;25.90;79.00
17421;DHT22;8828;48.800;9.540;2022-10-16T13:50:31;25.80;78.40
17421;DHT22;8828;48.800;9.540;2022-10-16T13:53:06;25.90;77.10
17421;DHT22;8828;48.800;9.540;2022-10-16T13:55:34;25.80;77.50
17421;DHT22;8828;48.800;9.540;2022-10-16T13:58:07;25.80;77.30
17421;DHT22;8828;48.800;9.540;2022-10-16T14:00:36;25.60;77.50
17421;DHT22;8828;48.800;9.540;2022-10-16T14:03:14;25.50;78.30
17421;DHT22;8828;48.800;9.540;2022-10-16T14:05:45;25.30;78.90
17421;DHT22;8828;48.800;9.540;2022-10-16T14:08:15;25.10;79.20
17421;DHT22;8828;48.800;9.540;2022-10-16T14:10:48;25.10;80.90
17421;DHT22;8828;48.800;9.540;2022-10-16T14:13:19;25.00;80.70
17421;DHT22;8828;48.800;9.540;2022-10-16T14:15:50;24.90;82.80
17421;DHT22;8828;48.800;9.540;2022-10-16T14:18:21;24.90;82.90
17421;DHT22;8828;48.800;9.540;2022-10-16T14:20:51;24.80;83.40
17421;DHT22;8828;48.800;9.540;2022-10-16T14:23:22;24.80;83.80
17421;DHT22;8828;48.800;9.540;2022-10-16T14:25:50;24.70;86.60
17421;DHT22;8828;48.800;9.540;2022-10-16T14:28:19;24.60;86.90
17421;DHT22;8828;48.800;9.540;2022-10-16T14:30:53;24.50;88.50
17421;DHT22;8828;48.800;9.540;2022-10-16T14:33:24;24.40;89.00
17421;DHT22;8828;48.800;9.540;2022-10-16T14:36:03;24.30;89.10
17421;DHT22;8828;48.800;9.540;2022-10-16T14:38:32;24.20;90.00
17421;DHT22;8828;48.800;9.540;2022-10-16T14:41:00;24.10;90.10
17421;DHT22;8828;48.800;9.540;2022-10-16T14:43:32;24.00;91.10
17421;DHT22;8828;48.800;9.540;2022-10-16T14:46:06;23.90;92.60
17421;DHT22;8828;48.800;9.540;2022-10-16T14:48:34;23.80;94.10
17421;DHT22;8828;48.800;9.540;2022-10-16T14:51:02;23.70;95.10
17421;DHT22;8828;48.800;9.540;2022-10-16T14:53:30;23.60;95.70
17421;DHT22;8828;48.800;9.540;2022-10-16T14:55:58;23.60;96.80
17421;DHT22;8828;48.800;9.540;2022-10-16T14:58:33;23.40;96.70
17421;DHT22;8828;48.800;9.540;2022-10-16T15:01:02;23.30;97.50
17421;DHT22;8828;48.800;9.540;2022-10-16T15:03:33;23.30;98.80
17421;DHT22;8828;48.800;9.540;2022-10-16T15:06:01;23.20;98.70
17421;DHT22;8828;48.800;9.540;2022-10-16T15:08:29;23.10;99.00
17421;DHT22;8828;48.800;9.540;2022-10-16T15:10:57;23.10;99.90
17421;DHT22;8828;48.800;9.540;2022-10-16T15:13:25;23.00;99.90
17421;DHT22;8828;48.800;9.540;2022-10-16T15:15:53;22.90;99.90
17421;DHT22;8828;48.800;9.540;2022-10-16T15:18:22;22.90;99.90
17421;DHT22;8828;48.800;9.540;2022-10-16T15:20:51;22.90;99.90
17421;DHT22;8828;48.800;9.540;2022-10-16T15:23:22;22.80;99.90
17421;DHT22;8828;48.800;9.540;2022-10-16T15:25:54;22.80;99.90
17421;DHT22;8828;48.800;9.540;2022-10-16T15:28:24;22.80;99.90
17421;DHT22;8828;48.800;9.540;2022-10-16T15:30:54;22.70;99.90
17421;DHT22;8828;48.800;9.540;2022-10-16T15:33:25;22.60;99.90
17421;DHT22;8828;48.800;9.540;2022-10-16T15:35:55;22.60;99.90
17421;DHT22;8828;48.800;9.540;2022-10-16T15:38:23;22.50;99.90
17421;DHT22;8828;48.800;9.540;2022-10-16T15:40:51;22.50;99.90
17421;DHT22;8828;48.800;9.540;2022-10-16T15:43:19;22.40;99.90
17421;DHT22;8828;48.800;9.540;2022-10-16T15:45:57;22.30;99.90
17421;DHT22;8828;48.800;9.540;2022-10-16T15:48:58;22.30;99.90
17421;DHT22;8828;48.800;9.540;2022-10-16T15:51:26;22.20;99.90
17421;DHT22;8828;48.800;9.540;2022-10-16T15:53:56;22.10;99.90
17421;DHT22;8828;48.800;9.540;2022-10-16T15:56:24;22.00;99.90
17421;DHT22;8828;48.800;9.540;2022-10-16T15:58:52;21.90;99.90
17421;DHT22;8828;48.800;9.540;2022-10-16T16:01:21;21.80;99.90
17421;DHT22;8828;48.800;9.540;2022-10-16T16:03:52;21.70;99.90
17421;DHT22;8828;48.800;9.540;2022-10-16T16:06:22;21.60;99.90
17421;DHT22;8828;48.800;9.540;2022-10-16T16:08:51;21.60;99.90
17421;DHT22;8828;48.800;9.540;2022-10-16T16:11:19;21.50;99.90
17421;DHT22;8828;48.800;9.540;2022-10-16T16:13:49;21.50;99.90
17421;DHT22;8828;48.800;9.540;2022-10-16T16:16:17;21.40;99.90
17421;DHT22;8828;48.800;9.540;2022-10-16T16:18:46;21.30;99.90
17421;DHT22;8828;48.800;9.540;2022-10-16T16:21:15;21.20;99.90
17421;DHT22;8828;48.800;9.540;2022-10-16T16:23:45;21.20;99.90